Time;durP1;ratioP1;P1;durP2;ratioP2;P2;SDS_P1;SDS_P2;PMS_P1;PMS_P2;Temp;Humidity;BMP_temperature;BMP_pressure;BME280_temperature;BME280_humidity;BME280_pressure;Samples;Min_cycle;Max_cycle;Signal;HPM_P1;HPM_P2
2023/02/06 00:01:01;;;;;;;22.70;3.83;;;13.90;73.70;;;;;;4063336;29;20404;-65
2023/02/06 00:03:44;;;;;;;21.00;4.32;;;13.90;73.70;;;;;;4063532;29;20127;-65
2023/02/06 00:06:25;;;;;;;21.17;3.35;;;13.90;73.70;;;;;;4062908;29;20403;-65
2023/02/06 00:09:07;;;;;;;24.92;4.22;;;13.90;74.00;;;;;;4062476;29;20054;-65
2023/02/06 00:11:48;;;;;;;15.57;3.50;;;13.90;74.10;;;;;;4050954;29;20180;-65
2023/02/06 00:14:28;;;;;;;25.53;4.17;;;13.90;74.20;;;;;;4053165;29;20047;-64
2023/02/06 00:17:09;;;;;;;20.98;4.25;;;13.80;74.20;;;;;;4062650;29;20616;-65
2023/02/06 00:19:52;;;;;;;20.65;3.47;;;13.80;74.40;;;;;;4062703;29;20477;-67
2023/02/06 00:22:33;;;;;;;20.65;3.45;;;13.80;74.60;;;;;;4062840;29;20059;-67
2023/02/06 00:25:14;;;;;;;19.95;3.60;;;13.80;74.80;;;;;;4062651;29;20380;-67
2023/02/06 00:27:55;;;;;;;19.05;4.15;;;13.80;75.00;;;;;;4062784;29;20054;-67
2023/02/06 00:30:37;;;;;;;17.48;3.75;;;13.80;75.20;;;;;;4040451;29;20047;-67
2023/02/06 00:33:19;;;;;;;17.38;4.35;;;13.80;75.30;;;;;;4046917;29;20059;-66
2023/02/06 00:36:02;;;;;;;;;;;13.80;75.40;;;;;;4054634;29;20051;-66
2023/02/06 00:38:43;;;;;;;15.80;3.65;;;13.80;75.50;;;;;;4062752;29;19930;-66
2023/02/06 00:41:24;;;;;;;13.95;3.75;;;13.80;76.30;;;;;;4050625;29;20192;-67
2023/02/06 00:44:05;;;;;;;16.00;3.70;;;13.80;76.10;;;;;;4062909;29;20051;-67
2023/02/06 00:46:46;;;;;;;15.70;3.33;;;13.70;75.90;;;;;;4062687;29;20059;-67
2023/02/06 00:49:27;;;;;;;12.82;2.72;;;13.80;75.90;;;;;;4050637;29;20059;-67
2023/02/06 00:52:09;;;;;;;17.07;3.33;;;13.80;75.90;;;;;;4046980;29;20080;-67
2023/02/06 00:54:51;;;;;;;20.38;3.13;;;13.80;75.80;;;;;;4046564;29;20056;-64
2023/02/06 00:57:32;;;;;;;21.47;3.50;;;13.80;75.80;;;;;;4062472;29;20636;-65
2023/02/06 01:00:14;;;;;;;13.40;2.97;;;13.80;75.90;;;;;;4062663;29;20059;-64
2023/02/06 01:02:55;;;;;;;13.50;2.90;;;13.80;75.90;;;;;;4061662;29;20055;-64
2023/02/06 01:05:36;;;;;;;16.42;3.72;;;13.80;76.70;;;;;;4061397;29;20927;-64
2023/02/06 01:08:19;;;;;;;13.57;3.08;;;13.70;75.90;;;;;;4062143;29;20106;-63
2023/02/06 01:10:59;;;;;;;15.43;2.80;;;13.70;75.70;;;;;;4062162;29;20063;-64
2023/02/06 01:13:41;;;;;;;17.27;3.53;;;13.80;75.90;;;;;;4050654;29;20180;-64
2023/02/06 01:16:24;;;;;;;10.65;2.55;;;13.70;75.70;;;;;;4062722;29;20055;-65
2023/02/06 01:19:06;;;;;;;13.10;2.35;;;13.80;75.60;;;;;;4050792;29;20620;-65
2023/02/06 01:21:46;;;;;;;18.20;3.13;;;13.80;75.70;;;;;;4062042;29;20051;-64
2023/02/06 01:24:31;;;;;;;14.95;3.42;;;13.80;75.70;;;;;;4062571;29;20063;-64
2023/02/06 01:27:11;;;;;;;13.02;2.60;;;13.80;75.70;;;;;;4062782;29;20126;-64
2023/02/06 01:29:53;;;;;;;8.77;3.08;;;13.80;76.70;;;;;;4050430;29;20059;-64
2023/02/06 01:32:37;;;;;;;11.38;2.33;;;13.70;75.90;;;;;;4062449;29;20055;-65
2023/02/06 01:35:18;;;;;;;20.15;3.42;;;13.80;75.90;;;;;;4046833;29;20108;-66
2023/02/06 01:37:59;;;;;;;16.25;2.97;;;13.70;76.00;;;;;;4049312;29;20112;-67
2023/02/06 01:40:41;;;;;;;9.75;2.90;;;13.80;75.90;;;;;;4061487;29;20059;-67
2023/02/06 01:43:22;;;;;;;12.70;2.83;;;13.80;76.60;;;;;;4065194;29;20146;-65
2023/02/06 01:46:04;;;;;;;16.10;2.80;;;13.80;76.80;;;;;;4042889;29;20047;-65
2023/02/06 01:48:49;;;;;;;11.15;2.85;;;13.80;75.90;;;;;;4064969;29;20131;-65
2023/02/06 01:51:31;;;;;;;21.48;3.50;;;13.90;75.50;;;;;;4037698;29;20055;-64
2023/02/06 01:54:12;;;;;;;;;;;13.90;75.40;;;;;;4049953;29;20123;-64
2023/02/06 01:56:58;;;;;;;13.52;2.88;;;13.80;75.50;;;;;;4048885;29;20435;-65
2023/02/06 01:59:44;;;;;;;14.40;3.60;;;13.80;76.40;;;;;;4033361;29;20095;-66
2023/02/06 02:02:27;;;;;;;18.40;4.25;;;13.80;76.60;;;;;;4064890;29;20054;-66
2023/02/06 02:05:09;;;;;;;15.15;3.33;;;13.80;77.40;;;;;;4065068;29;20051;-65
2023/02/06 02:07:59;;;;;;;14.25;3.92;;;14.00;77.20;;;;;;4065272;29;20376;-66
2023/02/06 02:10:40;;;;;;;15.52;3.78;;;14.20;76.50;;;;;;4064979;29;20160;-66
2023/02/06 02:13:23;;;;;;;12.80;2.95;;;14.30;75.90;;;;;;4048907;29;20064;-66
2023/02/06 02:16:12;;;;;;;18.17;3.55;;;14.40;75.30;;;;;;4061394;29;20188;-66
2023/02/06 02:19:06;;;;;;;9.45;3.42;;;14.50;74.80;;;;;;4052936;29;20063;-65
2023/02/06 02:22:20;;;;;;;19.65;3.35;;;14.60;74.40;;;;;;4063692;29;20412;-66
2023/02/06 02:25:31;;;;;;;11.25;2.80;;;14.60;73.70;;;;;;4064659;29;20043;-64
2023/02/06 02:28:45;;;;;;;12.65;2.88;;;14.70;73.40;;;;;;4064525;29;20143;-66
2023/02/06 02:31:59;;;;;;;13.70;2.95;;;14.70;73.60;;;;;;4052411;29;20063;-66
2023/02/06 02:35:08;;;;;;;14.05;2.83;;;14.60;73.50;;;;;;4064349;29;20058;-67
2023/02/06 02:38:02;;;;;;;15.85;2.88;;;14.60;73.80;;;;;;4037263;29;20059;-66
2023/02/06 02:40:50;;;;;;;14.27;2.90;;;14.70;74.10;;;;;;4036652;29;20052;-67
2023/02/06 02:43:41;;;;;;;9.38;3.25;;;14.70;73.90;;;;;;4040884;29;20605;-66
2023/02/06 02:46:27;;;;;;;21.23;3.17;;;14.70;73.90;;;;;;4052369;29;20059;-67
2023/02/06 02:49:13;;;;;;;17.15;3.38;;;14.80;73.80;;;;;;4051962;29;20516;-67
2023/02/06 02:51:57;;;;;;;11.93;2.65;;;14.80;73.60;;;;;;4052437;29;20090;-67
2023/02/06 02:54:40;;;;;;;11.13;2.35;;;14.90;73.50;;;;;;4052628;29;20059;-68
2023/02/06 02:57:26;;;;;;;15.00;3.15;;;14.90;73.10;;;;;;4048339;29;20099;-67
2023/02/06 03:00:09;;;;;;;15.38;2.92;;;15.00;72.90;;;;;;4036790;29;20051;-67
2023/02/06 03:02:53;;;;;;;18.92;3.65;;;15.00;72.80;;;;;;4047400;29;20206;-66
2023/02/06 03:05:40;;;;;;;14.57;3.13;;;15.10;72.80;;;;;;4048375;29;20059;-66
2023/02/06 03:08:34;;;;;;;17.70;3.85;;;15.20;72.40;;;;;;4037027;29;20172;-67
2023/02/06 03:11:18;;;;;;;12.45;2.70;;;15.30;71.90;;;;;;4044818;29;20066;-67
2023/02/06 03:14:05;;;;;;;14.45;2.90;;;15.30;71.60;;;;;;4041441;29;20071;-67
2023/02/06 03:16:50;;;;;;;17.00;3.67;;;15.40;71.30;;;;;;4063814;29;20064;-67
2023/02/06 03:19:34;;;;;;;16.92;4.28;;;15.40;71.50;;;;;;4051869;29;20058;-67
2023/02/06 03:22:16;;;;;;;8.15;2.50;;;15.50;71.20;;;;;;4016707;29;20061;-67
2023/02/06 03:25:00;;;;;;;12.05;2.78;;;15.50;71.00;;;;;;4017145;29;20068;-67
2023/02/06 03:27:43;;;;;;;11.23;2.97;;;15.50;70.70;;;;;;4030211;29;20055;-67
2023/02/06 03:30:25;;;;;;;12.32;2.42;;;15.50;70.70;;;;;;4032192;29;20059;-68
2023/02/06 03:33:10;;;;;;;14.75;2.63;;;15.40;70.80;;;;;;4031489;29;20413;-67
2023/02/06 03:35:51;;;;;;;9.15;2.40;;;15.40;70.90;;;;;;4032515;29;20055;-66
2023/02/06 03:38:32;;;;;;;14.52;2.58;;;15.40;71.00;;;;;;4032434;29;20108;-67
2023/02/06 03:41:17;;;;;;;12.15;2.72;;;15.40;71.10;;;;;;4031894;29;20055;-67
2023/02/06 03:43:59;;;;;;;17.50;3.08;;;15.40;71.30;;;;;;4032260;29;20153;-68
2023/02/06 03:46:43;;;;;;;8.45;2.40;;;15.30;71.40;;;;;;4031637;29;20154;-66
2023/02/06 03:49:27;;;;;;;16.17;3.20;;;15.40;71.40;;;;;;4032531;29;20065;-67
2023/02/06 03:52:11;;;;;;;9.93;3.00;;;15.40;71.00;;;;;;4032233;29;20044;-67
2023/02/06 03:55:03;;;;;;;15.13;3.03;;;15.40;71.10;;;;;;4032287;29;20063;-67
2023/02/06 03:57:50;;;;;;;14.13;3.45;;;15.30;71.00;;;;;;4032164;29;20128;-67
2023/02/06 04:00:31;;;;;;;10.50;3.35;;;15.30;71.40;;;;;;4031037;29;20063;-67
2023/02/06 04:03:14;;;;;;;13.55;3.78;;;15.40;71.60;;;;;;4031992;29;20043;-66
2023/02/06 04:05:55;;;;;;;10.80;3.00;;;15.40;71.40;;;;;;4016926;29;20603;-66
2023/02/06 04:08:36;;;;;;;13.57;3.03;;;15.50;71.30;;;;;;4016665;29;20112;-67
2023/02/06 04:11:17;;;;;;;16.33;2.85;;;15.50;71.00;;;;;;4015642;29;20052;-67
2023/02/06 04:13:59;;;;;;;12.85;2.78;;;15.50;70.70;;;;;;4005302;29;20049;-67
2023/02/06 04:16:40;;;;;;;12.95;3.13;;;15.60;70.40;;;;;;4020753;29;20056;-67
2023/02/06 04:19:21;;;;;;;19.05;3.70;;;15.70;70.30;;;;;;4024505;29;20999;-66
2023/02/06 04:22:02;;;;;;;12.95;3.53;;;15.60;70.40;;;;;;4031886;29;20067;-67
2023/02/06 04:24:43;;;;;;;14.32;3.63;;;15.60;70.40;;;;;;4032059;29;20051;-67
2023/02/06 04:27:24;;;;;;;9.57;2.63;;;15.60;70.40;;;;;;4032191;29;20051;-67
2023/02/06 04:30:09;;;;;;;11.23;2.38;;;15.50;70.70;;;;;;4031559;29;20554;-67
2023/02/06 04:32:49;;;;;;;13.98;2.60;;;15.60;70.70;;;;;;4020387;29;20151;-67
2023/02/06 04:35:30;;;;;;;13.05;2.63;;;15.60;70.60;;;;;;4031077;29;20548;-67
2023/02/06 04:38:11;;;;;;;19.80;7.35;;;15.60;70.30;;;;;;4016107;29;20076;-68
2023/02/06 04:40:52;;;;;;;24.88;7.68;;;15.70;70.40;;;;;;4016210;29;20378;-67
2023/02/06 04:43:33;;;;;;;16.70;4.47;;;15.60;70.20;;;;;;4016512;29;20051;-67
2023/02/06 04:46:16;;;;;;;15.80;3.88;;;15.60;70.10;;;;;;4022009;29;20166;-67
2023/02/06 04:48:57;;;;;;;13.50;3.13;;;15.50;70.30;;;;;;4031742;29;20060;-67
2023/02/06 04:51:38;;;;;;;14.20;3.25;;;15.50;70.70;;;;;;4031503;29;20421;-65
2023/02/06 04:54:19;;;;;;;10.52;2.53;;;15.50;70.80;;;;;;4031210;29;20056;-64
2023/02/06 04:57:00;;;;;;;11.48;3.00;;;15.50;70.60;;;;;;4015884;29;20056;-64
2023/02/06 04:59:41;;;;;;;14.88;3.50;;;15.50;70.70;;;;;;4016643;29;20104;-64
2023/02/06 05:02:23;;;;;;;20.30;3.20;;;15.50;70.80;;;;;;4018267;29;20087;-65
2023/02/06 05:05:04;;;;;;;22.10;3.13;;;15.50;70.60;;;;;;4022898;29;20872;-65
2023/02/06 05:07:45;;;;;;;11.82;2.70;;;15.60;70.40;;;;;;4031701;29;20052;-64
2023/02/06 05:10:26;;;;;;;18.58;4.57;;;15.70;70.20;;;;;;4031552;29;20060;-64
2023/02/06 05:13:07;;;;;;;;;;;15.70;70.30;;;;;;4034747;29;20052;-65
2023/02/06 05:15:48;;;;;;;19.15;3.13;;;15.60;70.30;;;;;;4034907;29;19931;-66
2023/02/06 05:18:30;;;;;;;16.35;3.03;;;15.60;70.70;;;;;;4034700;29;20416;-66
2023/02/06 05:21:12;;;;;;;9.55;2.63;;;15.50;70.60;;;;;;4041306;29;20533;-66
2023/02/06 05:23:53;;;;;;;;;;;15.50;70.80;;;;;;4050546;29;20059;-67
2023/02/06 05:26:33;;;;;;;12.60;2.90;;;15.50;71.00;;;;;;4023077;29;19934;-66
2023/02/06 05:29:14;;;;;;;14.52;3.47;;;15.50;71.00;;;;;;4034565;29;20052;-66
2023/02/06 05:31:55;;;;;;;20.80;2.97;;;15.50;71.10;;;;;;4034409;29;20052;-67
2023/02/06 05:34:37;;;;;;;18.20;3.33;;;15.50;71.20;;;;;;4047884;29;20060;-67
2023/02/06 05:37:18;;;;;;;11.77;3.00;;;15.50;71.20;;;;;;4049367;29;20055;-66
2023/02/06 05:39:59;;;;;;;12.73;3.15;;;15.60;71.00;;;;;;4049730;29;20055;-67
2023/02/06 05:42:40;;;;;;;18.20;3.17;;;15.60;70.80;;;;;;4049029;29;20059;-67
2023/02/06 05:45:21;;;;;;;19.05;3.33;;;15.60;70.50;;;;;;4049379;29;20055;-67
2023/02/06 05:48:02;;;;;;;17.90;3.33;;;15.60;70.60;;;;;;4049154;29;20392;-66
2023/02/06 05:50:45;;;;;;;15.88;3.03;;;15.60;70.70;;;;;;4049753;29;20048;-66
2023/02/06 05:53:28;;;;;;;10.45;2.67;;;15.70;70.80;;;;;;4049418;29;20058;-67
2023/02/06 05:56:09;;;;;;;11.38;2.83;;;15.70;70.60;;;;;;4027203;29;20500;-66
2023/02/06 05:58:49;;;;;;;10.85;2.53;;;15.70;70.40;;;;;;4049628;29;20185;-66
2023/02/06 06:01:31;;;;;;;24.33;3.72;;;15.70;70.20;;;;;;4049345;29;20060;-66
2023/02/06 06:04:12;;;;;;;18.48;3.33;;;15.70;70.20;;;;;;4049120;29;20055;-66
2023/02/06 06:06:54;;;;;;;17.00;3.92;;;15.70;70.30;;;;;;4049379;29;20495;-66
2023/02/06 06:09:35;;;;;;;16.30;3.20;;;15.70;70.70;;;;;;4049244;29;20099;-68
2023/02/06 06:12:16;;;;;;;17.73;3.40;;;15.60;70.80;;;;;;4033375;29;20512;-67
2023/02/06 06:14:56;;;;;;;18.98;4.28;;;15.70;70.50;;;;;;4033687;29;20174;-66
2023/02/06 06:17:37;;;;;;;17.60;3.88;;;15.70;70.30;;;;;;4033732;29;20188;-66
2023/02/06 06:20:18;;;;;;;14.77;3.45;;;15.80;70.40;;;;;;4042955;29;20055;-66
2023/02/06 06:23:00;;;;;;;19.30;3.88;;;15.70;70.30;;;;;;4048463;29;20377;-67
2023/02/06 06:25:41;;;;;;;17.00;3.83;;;15.70;70.50;;;;;;4037117;29;20064;-66
2023/02/06 06:28:23;;;;;;;18.85;4.63;;;15.80;70.60;;;;;;4037444;29;20143;-66
2023/02/06 06:31:06;;;;;;;16.67;3.20;;;15.80;70.40;;;;;;4048382;29;20412;-66
2023/02/06 06:33:47;;;;;;;17.05;2.70;;;15.80;70.00;;;;;;4048963;29;20107;-66
2023/02/06 06:36:28;;;;;;;225.25;103.10;;;15.80;69.90;;;;;;4048334;29;20059;-66
2023/02/06 06:39:11;;;;;;;8.98;3.22;;;15.80;70.00;;;;;;4048836;29;20409;-66
2023/02/06 06:41:51;;;;;;;18.30;3.92;;;15.80;70.10;;;;;;4048437;29;20087;-67
2023/02/06 06:44:33;;;;;;;10.55;3.30;;;15.70;70.30;;;;;;4048451;29;20189;-66
2023/02/06 06:47:13;;;;;;;10.83;2.97;;;15.60;70.70;;;;;;4048440;29;20051;-66
2023/02/06 06:49:55;;;;;;;15.05;3.25;;;15.60;71.00;;;;;;4048253;29;21089;-68
2023/02/06 06:52:36;;;;;;;15.63;3.88;;;15.70;71.20;;;;;;4048263;29;20539;-67
2023/02/06 06:55:18;;;;;;;10.60;2.60;;;15.70;71.10;;;;;;4048617;29;20162;-66
2023/02/06 06:57:59;;;;;;;16.20;3.47;;;15.80;71.00;;;;;;4049271;29;22041;-66
2023/02/06 07:00:40;;;;;;;21.23;3.75;;;15.70;71.80;;;;;;4040801;29;20059;-66
2023/02/06 07:03:21;;;;;;;12.23;3.53;;;15.80;70.90;;;;;;4048477;29;20104;-66
2023/02/06 07:06:02;;;;;;;14.63;3.47;;;15.80;70.70;;;;;;4032878;29;20068;-66
2023/02/06 07:08:43;;;;;;;19.48;3.83;;;15.80;70.20;;;;;;4047719;29;20679;-67
2023/02/06 07:11:26;;;;;;;13.95;2.72;;;15.80;69.90;;;;;;4048366;29;20060;-66
2023/02/06 07:14:07;;;;;;;12.98;4.05;;;15.90;69.60;;;;;;4047800;29;20525;-67
2023/02/06 07:16:48;;;;;;;15.80;3.65;;;15.90;69.40;;;;;;4048140;29;20075;-66
2023/02/06 07:19:29;;;;;;;12.73;3.30;;;15.80;69.20;;;;;;4048386;29;20060;-66
2023/02/06 07:22:10;;;;;;;15.80;5.18;;;15.80;69.40;;;;;;4047943;29;20060;-67
2023/02/06 07:24:51;;;;;;;16.52;3.90;;;15.70;69.60;;;;;;4048393;29;20055;-67
2023/02/06 07:27:35;;;;;;;17.58;4.07;;;15.70;69.80;;;;;;4036098;29;20068;-67
2023/02/06 07:30:17;;;;;;;14.65;3.38;;;15.60;70.20;;;;;;4047651;29;20122;-68
2023/02/06 07:32:58;;;;;;;16.25;3.78;;;15.70;70.30;;;;;;4047976;29;20602;-68
2023/02/06 07:35:39;;;;;;;14.45;3.35;;;15.70;70.80;;;;;;4047749;29;20052;-67
2023/02/06 07:38:20;;;;;;;13.55;3.72;;;15.70;69.50;;;;;;4047662;29;20056;-67
2023/02/06 07:41:02;;;;;;;14.95;3.72;;;15.70;69.30;;;;;;4047081;29;20063;-67
2023/02/06 07:43:44;;;;;;;14.98;3.90;;;15.70;69.20;;;;;;4047626;29;20063;-67
2023/02/06 07:46:25;;;;;;;18.83;2.95;;;15.60;69.20;;;;;;4037870;29;20068;-67
2023/02/06 07:49:07;;;;;;;15.48;3.58;;;15.60;69.40;;;;;;4047785;29;20586;-67
2023/02/06 07:51:48;;;;;;;11.90;3.28;;;15.60;69.80;;;;;;4047891;29;20083;-68
2023/02/06 07:54:29;;;;;;;12.88;3.28;;;15.60;69.50;;;;;;4047671;29;20408;-68
2023/02/06 07:57:10;;;;;;;14.25;3.90;;;15.70;69.30;;;;;;4047493;29;20059;-67
2023/02/06 07:59:52;;;;;;;13.25;3.22;;;15.70;69.20;;;;;;4030854;29;20045;-66
2023/02/06 08:02:34;;;;;;;13.25;3.92;;;15.80;69.00;;;;;;4035047;29;20194;-67
2023/02/06 08:05:14;;;;;;;16.52;3.60;;;15.80;68.50;;;;;;4047283;29;20052;-66
2023/02/06 08:07:55;;;;;;;16.67;4.05;;;15.90;68.20;;;;;;4031984;29;20067;-68
2023/02/06 08:10:38;;;;;;;19.17;3.90;;;15.90;67.90;;;;;;4038565;29;20225;-67
2023/02/06 08:13:19;;;;;;;13.88;3.75;;;15.90;67.90;;;;;;4047352;29;20493;-67
2023/02/06 08:16:05;;;;;;;11.63;3.50;;;15.90;68.10;;;;;;4043691;29;20056;-70
2023/02/06 08:18:47;;;;;;;15.13;3.30;;;15.90;68.00;;;;;;4046905;29;20056;-68
2023/02/06 08:21:28;;;;;;;17.08;3.38;;;15.90;68.10;;;;;;4046164;29;20429;-66
2023/02/06 08:24:11;;;;;;;11.55;3.60;;;15.80;68.00;;;;;;4046943;29;20071;-70
2023/02/06 08:26:52;;;;;;;12.07;3.08;;;15.80;68.20;;;;;;4047313;29;20052;-68
2023/02/06 08:29:39;;;;;;;13.88;3.35;;;15.70;68.50;;;;;;4035698;29;20519;-69
2023/02/06 08:32:21;;;;;;;11.15;2.92;;;15.60;68.90;;;;;;4046696;29;20088;-69
2023/02/06 08:35:02;;;;;;;13.77;3.22;;;15.60;69.00;;;;;;4046404;29;20636;-68
2023/02/06 08:37:43;;;;;;;15.40;4.00;;;15.50;69.20;;;;;;4035445;29;20060;-69
2023/02/06 08:40:24;;;;;;;13.93;4.03;;;15.50;69.30;;;;;;4035595;29;20176;-69
2023/02/06 08:43:05;;;;;;;18.17;3.85;;;15.40;69.30;;;;;;4046661;29;20071;-69
2023/02/06 08:45:48;;;;;;;12.13;3.28;;;15.40;69.70;;;;;;4031084;29;20063;-69
2023/02/06 08:48:31;;;;;;;14.95;3.30;;;15.40;69.80;;;;;;4031580;29;20116;-70
2023/02/06 08:51:12;;;;;;;19.50;3.50;;;15.40;69.90;;;;;;4031893;29;20052;-70
2023/02/06 08:53:56;;;;;;;9.95;2.92;;;15.40;70.00;;;;;;4046763;29;20185;-69
2023/02/06 08:56:37;;;;;;;14.88;3.60;;;15.40;69.70;;;;;;4046576;29;20064;-69
2023/02/06 08:59:20;;;;;;;15.75;3.22;;;15.40;70.20;;;;;;4046886;29;20051;-70
2023/02/06 09:02:01;;;;;;;13.30;3.15;;;15.40;70.20;;;;;;4046336;29;20611;-70
2023/02/06 09:04:43;;;;;;;14.05;3.97;;;15.50;70.10;;;;;;4046821;29;20100;-69
2023/02/06 09:07:24;;;;;;;14.18;3.67;;;15.50;69.90;;;;;;4034917;29;20062;-68
2023/02/06 09:10:06;;;;;;;13.75;3.88;;;15.50;69.80;;;;;;4046170;29;20160;-69
2023/02/06 09:12:53;;;;;;;18.45;3.45;;;15.50;69.90;;;;;;4045879;29;20051;-69
2023/02/06 09:15:34;;;;;;;19.40;3.60;;;15.40;69.80;;;;;;4044182;29;20504;-69
2023/02/06 09:18:16;;;;;;;;;;;15.40;70.40;;;;;;4044684;29;20143;-68
2023/02/06 09:21:06;;;;;;;21.10;4.03;;;15.30;71.00;;;;;;4043556;29;19938;-68
2023/02/06 09:23:50;;;;;;;16.40;3.35;;;15.30;71.00;;;;;;4033512;29;20142;-69
2023/02/06 09:26:35;;;;;;;16.60;3.42;;;15.30;71.20;;;;;;4043788;29;20059;-68
2023/02/06 09:29:20;;;;;;;17.35;3.72;;;15.30;71.20;;;;;;4043826;29;20051;-69
2023/02/06 09:32:01;;;;;;;17.88;3.83;;;15.20;71.30;;;;;;4044114;29;20064;-68
2023/02/06 09:34:42;;;;;;;17.95;3.92;;;15.20;71.60;;;;;;4044001;29;20060;-69
2023/02/06 09:37:25;;;;;;;15.88;4.30;;;15.10;71.60;;;;;;4044467;29;20103;-66
2023/02/06 09:40:07;;;;;;;13.88;3.85;;;15.10;72.10;;;;;;4041375;29;20792;-68
2023/02/06 09:42:48;;;;;;;15.82;3.65;;;15.10;72.80;;;;;;4044072;29;20063;-67
2023/02/06 09:45:31;;;;;;;15.32;3.50;;;15.20;72.50;;;;;;4042792;29;20593;-68
2023/02/06 09:48:19;;;;;;;20.40;4.05;;;15.20;72.00;;;;;;4032176;29;20059;-67
2023/02/06 09:51:09;;;;;;;18.63;3.60;;;15.30;72.10;;;;;;4044142;29;20058;-67
2023/02/06 09:54:04;;;;;;;16.33;4.30;;;15.30;72.10;;;;;;4043977;29;20063;-68
2023/02/06 09:56:52;;;;;;;18.67;4.57;;;15.40;71.80;;;;;;4031259;29;20060;-69
2023/02/06 09:59:39;;;;;;;18.02;3.38;;;15.50;71.80;;;;;;4023737;29;20063;-67
2023/02/06 10:02:36;;;;;;;19.33;4.45;;;15.50;71.80;;;;;;4034568;29;20055;-63
2023/02/06 10:05:24;;;;;;;16.88;4.00;;;15.50;72.60;;;;;;4046684;29;20099;-67
2023/02/06 10:08:16;;;;;;;20.63;4.25;;;15.50;72.20;;;;;;4046294;29;20051;-68
2023/02/06 10:11:01;;;;;;;53.10;7.70;;;15.60;71.80;;;;;;4034491;29;20089;-67
2023/02/06 10:13:48;;;;;;;20.52;4.75;;;15.70;71.80;;;;;;4046964;29;20514;-68
2023/02/06 10:16:38;;;;;;;24.98;7.88;;;15.70;71.90;;;;;;4034695;29;20417;-68
2023/02/06 10:19:24;;;;;;;22.42;5.47;;;15.80;71.80;;;;;;4045848;29;20521;-68
2023/02/06 10:22:11;;;;;;;20.52;4.85;;;15.70;71.60;;;;;;4046194;29;20504;-68
2023/02/06 10:25:02;;;;;;;25.65;4.65;;;15.80;71.60;;;;;;4045607;29;20497;-68
2023/02/06 10:27:47;;;;;;;25.75;4.43;;;15.80;71.50;;;;;;4046249;29;20067;-68
2023/02/06 10:30:56;;;;;;;22.77;4.32;;;15.70;71.50;;;;;;4046026;29;20052;-68
2023/02/06 10:33:47;;;;;;;18.42;3.85;;;15.70;71.70;;;;;;4046115;29;20071;-68
2023/02/06 10:36:41;;;;;;;19.30;4.70;;;15.60;71.90;;;;;;4046416;29;20111;-67
2023/02/06 10:39:47;;;;;;;20.60;3.90;;;15.60;72.50;;;;;;4046120;29;20499;-68
2023/02/06 10:42:49;;;;;;;13.27;4.45;;;15.70;72.00;;;;;;4045481;29;20067;-69
2023/02/06 10:45:42;;;;;;;21.27;4.60;;;15.70;71.50;;;;;;4045810;29;20056;-67
2023/02/06 10:48:30;;;;;;;19.10;4.63;;;15.80;71.00;;;;;;4033809;29;20352;-68
2023/02/06 10:51:19;;;;;;;18.80;4.22;;;15.80;71.20;;;;;;4044647;29;20067;-68
2023/02/06 10:54:03;;;;;;;21.30;4.75;;;15.70;71.10;;;;;;4045640;29;20052;-66
2023/02/06 10:56:46;;;;;;;20.60;4.65;;;15.60;71.20;;;;;;4046153;29;20200;-68
2023/02/06 10:59:32;;;;;;;18.77;3.90;;;15.60;71.80;;;;;;4044652;29;20056;-68
2023/02/06 11:02:19;;;;;;;16.20;4.13;;;15.50;72.10;;;;;;4045157;29;20092;-69
2023/02/06 11:05:04;;;;;;;19.65;4.65;;;15.50;72.10;;;;;;4045640;29;20518;-68
2023/02/06 11:07:50;;;;;;;20.73;4.32;;;15.40;72.60;;;;;;4033586;29;20056;-70
2023/02/06 11:10:31;;;;;;;20.15;4.82;;;15.40;73.00;;;;;;4033167;29;20716;-70
2023/02/06 11:13:21;;;;;;;22.95;4.30;;;15.40;72.80;;;;;;4045686;29;20059;-70
2023/02/06 11:16:08;;;;;;;21.13;4.28;;;15.40;72.50;;;;;;4045225;29;20056;-69
2023/02/06 11:18:50;;;;;;;17.02;4.20;;;15.50;72.90;;;;;;4045695;29;20058;-66
2023/02/06 11:21:49;;;;;;;16.05;4.28;;;15.40;72.80;;;;;;4035314;29;20071;-67
2023/02/06 11:24:30;;;;;;;17.30;3.95;;;15.40;72.30;;;;;;4045506;29;20412;-68
2023/02/06 11:27:17;;;;;;;17.83;3.72;;;15.40;73.10;;;;;;4045600;29;20100;-68
2023/02/06 11:30:01;;;;;;;22.45;4.00;;;15.40;73.30;;;;;;4045444;29;20055;-68
2023/02/06 11:32:45;;;;;;;24.85;4.35;;;15.30;73.30;;;;;;4038210;29;20083;-68
2023/02/06 11:35:50;;;;;;;21.88;4.32;;;15.30;73.40;;;;;;4044602;29;20112;-68
2023/02/06 11:38:32;;;;;;;13.27;3.58;;;15.30;72.90;;;;;;4045177;29;20062;-68
2023/02/06 11:41:18;;;;;;;30.58;12.32;;;15.20;72.80;;;;;;4044794;29;20044;-68
2023/02/06 11:44:05;;;;;;;18.92;3.53;;;15.20;72.30;;;;;;4044934;29;20067;-69
2023/02/06 11:46:46;;;;;;;16.30;3.13;;;15.10;71.50;;;;;;4045445;29;20111;-68
2023/02/06 11:49:29;;;;;;;11.10;2.97;;;15.10;71.40;;;;;;4045003;29;20051;-68
2023/02/06 11:52:29;;;;;;;17.67;3.33;;;15.00;69.80;;;;;;4044066;29;20063;-68
2023/02/06 11:55:21;;;;;;;18.30;4.93;;;14.90;68.70;;;;;;4044488;29;20107;-67
2023/02/06 11:58:21;;;;;;;13.77;3.03;;;14.90;70.20;;;;;;4044884;29;20067;-68
2023/02/06 12:01:06;;;;;;;18.83;4.05;;;14.90;70.00;;;;;;4045113;29;20051;-68
2023/02/06 12:03:54;;;;;;;15.95;3.05;;;14.90;67.50;;;;;;4044538;29;20059;-69
2023/02/06 12:06:40;;;;;;;15.13;2.97;;;14.80;68.10;;;;;;4044547;29;20056;-67
2023/02/06 12:09:20;;;;;;;11.55;2.88;;;14.80;67.00;;;;;;4043621;29;20047;-69
2023/02/06 12:12:06;;;;;;;14.52;2.65;;;14.80;65.90;;;;;;4032379;29;20572;-68
2023/02/06 12:14:51;;;;;;;14.18;3.05;;;14.70;65.90;;;;;;4044481;29;20056;-69
2023/02/06 12:17:36;;;;;;;21.13;3.45;;;14.60;67.30;;;;;;4044841;29;20119;-70
2023/02/06 12:20:22;;;;;;;14.93;3.00;;;14.60;67.40;;;;;;4044310;29;20108;-69
2023/02/06 12:23:15;;;;;;;17.23;3.28;;;14.60;66.40;;;;;;4044632;29;20051;-67
2023/02/06 12:25:58;;;;;;;11.50;2.70;;;14.60;65.90;;;;;;4044638;29;20067;-68
2023/02/06 12:28:49;;;;;;;12.65;2.88;;;14.60;66.30;;;;;;4044148;29;20060;-68
2023/02/06 12:31:38;;;;;;;15.88;2.83;;;14.60;66.00;;;;;;4044481;29;20139;-68
2023/02/06 12:34:23;;;;;;;18.70;4.18;;;14.60;65.10;;;;;;4044057;29;20975;-70
2023/02/06 12:37:13;;;;;;;13.18;3.22;;;14.50;66.20;;;;;;4044260;29;20400;-69
2023/02/06 12:39:56;;;;;;;18.52;4.03;;;14.50;66.00;;;;;;4042355;29;20055;-70
2023/02/06 12:42:41;;;;;;;10.80;2.55;;;14.40;66.40;;;;;;4044252;29;20177;-70
2023/02/06 12:45:32;;;;;;;11.18;3.10;;;14.40;64.50;;;;;;4044129;29;20507;-70
2023/02/06 12:48:19;;;;;;;19.55;2.80;;;14.40;65.10;;;;;;4044185;29;20567;-69
2023/02/06 12:51:09;;;;;;;15.50;2.80;;;14.40;65.30;;;;;;4044212;29;20448;-70
2023/02/06 12:53:56;;;;;;;14.43;2.67;;;14.30;64.50;;;;;;4044486;29;20056;-70
2023/02/06 12:56:44;;;;;;;17.85;3.67;;;14.30;64.90;;;;;;4043124;29;20517;-70
2023/02/06 12:59:45;;;;;;;17.13;2.53;;;14.30;66.40;;;;;;4043092;29;20056;-70
2023/02/06 13:03:04;;;;;;;8.10;2.28;;;14.30;65.80;;;;;;4043662;29;20064;-71
2023/02/06 13:05:47;;;;;;;13.07;3.00;;;14.30;65.90;;;;;;4043509;29;20475;-70
2023/02/06 13:08:38;;;;;;;16.65;2.67;;;14.30;66.70;;;;;;4044386;29;20122;-70
2023/02/06 13:11:28;;;;;;;14.32;3.03;;;14.30;66.00;;;;;;4043872;29;20155;-70
2023/02/06 13:14:19;;;;;;;12.70;3.13;;;14.30;66.30;;;;;;4049583;29;20480;-70
2023/02/06 13:17:09;;;;;;;11.57;1.95;;;14.30;65.30;;;;;;4043844;29;20063;-70
2023/02/06 13:20:01;;;;;;;12.38;2.17;;;14.30;66.20;;;;;;4044518;29;20415;-70
2023/02/06 13:22:45;;;;;;;13.00;2.75;;;14.20;64.60;;;;;;4047170;29;20050;-70
2023/02/06 13:25:51;;;;;;;12.63;2.55;;;14.20;65.00;;;;;;4043721;29;20055;-70
2023/02/06 13:28:55;;;;;;;14.73;3.22;;;14.20;64.70;;;;;;4034612;29;20098;-70
2023/02/06 13:31:38;;;;;;;17.40;3.20;;;14.30;64.30;;;;;;4043060;29;20060;-69
2023/02/06 13:34:19;;;;;;;10.93;2.55;;;14.20;65.40;;;;;;4046316;29;20111;-69
2023/02/06 13:37:20;;;;;;;14.35;2.58;;;14.20;66.80;;;;;;4046902;29;20059;-71
2023/02/06 13:40:30;;;;;;;12.32;2.88;;;14.20;65.00;;;;;;4046185;29;20064;-70
2023/02/06 13:43:18;;;;;;;11.55;2.88;;;14.20;63.40;;;;;;4023356;29;20055;-70
2023/02/06 13:46:02;;;;;;;13.38;2.53;;;14.20;64.30;;;;;;4046249;29;20075;-69
2023/02/06 13:49:21;;;;;;;18.08;3.58;;;14.20;64.60;;;;;;4045938;29;20060;-70
2023/02/06 13:52:09;;;;;;;13.55;3.00;;;14.30;63.90;;;;;;4026712;29;20059;-70
2023/02/06 13:55:11;;;;;;;11.77;2.85;;;14.30;64.60;;;;;;4046877;29;20063;-69
2023/02/06 13:58:19;;;;;;;9.80;3.00;;;14.30;65.20;;;;;;4045869;29;20063;-68
2023/02/06 14:01:01;;;;;;;16.58;3.83;;;14.30;66.10;;;;;;4046288;29;20067;-68
2023/02/06 14:03:47;;;;;;;15.82;4.22;;;14.40;65.80;;;;;;4039644;29;20104;-67
2023/02/06 14:06:44;;;;;;;15.60;3.20;;;14.30;64.90;;;;;;4046983;29;20048;-66
2023/02/06 14:09:42;;;;;;;11.55;2.97;;;14.40;64.70;;;;;;4045275;29;20192;-69